Nyk Olympus — 3EOS7 — position and weather

sailwx.info

Track history (hours):
 
Tides and Currents Weather Stations Pressure Air Temp Water Temp Dewpoint Dewpoint Depression Visibility Wind Speed Wind Dir Waves Ship Positions

Nyk Olympus

Last reported at 2016-Sep-16 15:13 UTC. Time now 2016-Sep-27 17:17 UTC.
Position N 01°09' E 103°46'.
Warning: this ship's position is 11 days out of date.

Length 335 m; draft 11.1 m.

Type: Other ship. MMSI: 372478000.

Date/timePositionNaut miles runAvg speedWind from/ knotsBaromVisibWave heightAir tempDewpointWater temp
2016-Sep-16 15:13N 01°09' E 103°46'8 3.1
2016-Sep-16 12:31N 01°16' E 103°51'0 0.0
2016-Sep-16 09:23N 01°16' E 103°51'0 0.0
2016-Sep-16 07:33N 01°16' E 103°51'0 0.0
2016-Sep-16 03:33N 01°16' E 103°51'0 0.0
2016-Sep-16 02:33N 01°16' E 103°51'0 0.0
2016-Sep-16 00:33N 01°16' E 103°51'0 0.0
2016-Sep-15 22:33N 01°16' E 103°51'0 0.0
2016-Sep-15 21:33N 01°16' E 103°51'0 0.0
2016-Sep-15 20:33N 01°16' E 103°51'0 0.0
2016-Sep-15 18:33N 01°16' E 103°51'  
2016-Sep-11 22:23N 22°34' E 114°16'0 0.0
2016-Sep-11 19:09N 22°34' E 114°16'0 0.0
2016-Sep-11 18:34N 22°34' E 114°16'0 0.0
2016-Sep-11 17:16N 22°34' E 114°16'1 0.9
2016-Sep-11 16:33N 22°34' E 114°16'24 8.1
2016-Sep-11 13:33N 22°11' E 114°24'19 9.5
2016-Sep-11 11:33N 22°19' E 114°05'1110.7
2016-Sep-11 10:30N 22°23' E 113°54'4 2.0
2016-Sep-11 08:33N 22°27' E 113°53'0 0.0
2016-Sep-11 07:33N 22°27' E 113°53'0 0.0
2016-Sep-11 03:33N 22°27' E 113°53'0 0.0
2016-Sep-11 02:33N 22°27' E 113°53'0 0.0
2016-Sep-11 01:33N 22°27' E 113°53'0 0.0
2016-Sep-11 00:33N 22°27' E 113°53'0 0.0
2016-Sep-10 23:33N 22°27' E 113°53'0 0.0
2016-Sep-10 22:33N 22°27' E 113°53'0 0.0
2016-Sep-10 21:33N 22°27' E 113°53'0 0.0
2016-Sep-10 20:33N 22°27' E 113°53'0 0.0
2016-Sep-10 19:33N 22°27' E 113°53'0 0.0
2016-Sep-10 18:33N 22°27' E 113°53'3 2.6
2016-Sep-10 17:33N 22°24' E 113°54'11 9.2
2016-Sep-10 16:19N 22°20' E 114°05'2 1.4
2016-Sep-10 14:33N 22°18' E 114°06'3 0.3
2016-Sep-10 04:31N 22°21' E 114°07'0 0.0
2016-Sep-09 22:28N 22°21' E 114°07'0 0.0
2016-Sep-09 21:30N 22°21' E 114°07'0 0.0
2016-Sep-09 20:33N 22°21' E 114°07'3 2.8
2016-Sep-09 19:33N 22°18' E 114°06'1610.8
2016-Sep-09 18:03N 22°08' E 114°19'5 9.9
2016-Sep-09 17:34N 22°08' E 114°24'30519.0
2016-Sep-09 01:32N 22°31' E 119°53'1717.7
2016-Sep-09 00:33N 22°32' E 120°12'7 6.7
2016-Sep-08 23:33N 22°34' E 120°19'0 0.1
2016-Sep-08 22:33N 22°34' E 120°18'0 0.0
2016-Sep-08 21:33N 22°34' E 120°18'0 0.0
2016-Sep-08 20:33N 22°34' E 120°18'0 0.0
2016-Sep-08 19:33N 22°34' E 120°18'0 0.0
2016-Sep-08 18:34N 22°34' E 120°18'0 0.0
2016-Sep-08 17:33N 22°34' E 120°18'0 0.0
2016-Sep-08 16:33N 22°34' E 120°18'0 0.0
2016-Sep-08 15:34N 22°34' E 120°18'0 0.0
2016-Sep-08 14:33N 22°34' E 120°18'0 0.0
2016-Sep-08 13:33N 22°34' E 120°18'0 0.0
2016-Sep-08 12:33N 22°34' E 120°18'0 0.0
2016-Sep-08 11:33N 22°34' E 120°18'0 0.0
2016-Sep-08 10:33N 22°34' E 120°18'0 0.0
2016-Sep-08 09:33N 22°34' E 120°18'0 0.0
2016-Sep-08 08:33N 22°34' E 120°18'0 0.0
2016-Sep-08 07:33N 22°34' E 120°18'0 0.0
2016-Sep-08 06:33N 22°34' E 120°18'0 0.0
2016-Sep-08 05:33N 22°34' E 120°18'0 0.0
2016-Sep-08 04:33N 22°34' E 120°18'0 0.0
2016-Sep-08 03:33N 22°34' E 120°18'0 0.0
2016-Sep-08 02:33N 22°34' E 120°18'1 1.0
2016-Sep-08 01:31N 22°33' E 120°18'4 3.9
2016-Sep-08 00:34N 22°32' E 120°14'7 6.9
2016-Sep-07 23:33N 22°30' E 120°07'1313.0
2016-Sep-07 22:33N 22°25' E 119°54'  
Track history (hours):
 
Tides and Currents Weather Stations Pressure Air Temp Water Temp Dewpoint Dewpoint Depression Visibility Wind Speed Wind Dir Waves Ship Positions

Nyk Olympus

Last reported at 2016-Sep-16 15:13 UTC. Time now 2016-Sep-27 17:17 UTC.
Position N 01°09' E 103°46'.
Warning: this ship's position is 11 days out of date.

Length 335 m; draft 11.1 m.

Type: Other ship. MMSI: 372478000.

Date/timePositionNaut miles runAvg speedWind from/ knotsBaromVisibWave heightAir tempDewpointWater temp
2016-Sep-16 15:13N 01°09' E 103°46'8 3.1
2016-Sep-16 12:31N 01°16' E 103°51'0 0.0
2016-Sep-16 09:23N 01°16' E 103°51'0 0.0
2016-Sep-16 07:33N 01°16' E 103°51'0 0.0
2016-Sep-16 03:33N 01°16' E 103°51'0 0.0
2016-Sep-16 02:33N 01°16' E 103°51'0 0.0
2016-Sep-16 00:33N 01°16' E 103°51'0 0.0
2016-Sep-15 22:33N 01°16' E 103°51'0 0.0
2016-Sep-15 21:33N 01°16' E 103°51'0 0.0
2016-Sep-15 20:33N 01°16' E 103°51'0 0.0
2016-Sep-15 18:33N 01°16' E 103°51'  
2016-Sep-11 22:23N 22°34' E 114°16'0 0.0
2016-Sep-11 19:09N 22°34' E 114°16'0 0.0
2016-Sep-11 18:34N 22°34' E 114°16'0 0.0
2016-Sep-11 17:16N 22°34' E 114°16'1 0.9
2016-Sep-11 16:33N 22°34' E 114°16'24 8.1
2016-Sep-11 13:33N 22°11' E 114°24'19 9.5
2016-Sep-11 11:33N 22°19' E 114°05'1110.7
2016-Sep-11 10:30N 22°23' E 113°54'4 2.0
2016-Sep-11 08:33N 22°27' E 113°53'0 0.0
2016-Sep-11 07:33N 22°27' E 113°53'0 0.0
2016-Sep-11 03:33N 22°27' E 113°53'0 0.0
2016-Sep-11 02:33N 22°27' E 113°53'0 0.0
2016-Sep-11 01:33N 22°27' E 113°53'0 0.0
2016-Sep-11 00:33N 22°27' E 113°53'0 0.0
2016-Sep-10 23:33N 22°27' E 113°53'0 0.0
2016-Sep-10 22:33N 22°27' E 113°53'0 0.0
2016-Sep-10 21:33N 22°27' E 113°53'0 0.0
2016-Sep-10 20:33N 22°27' E 113°53'0 0.0
2016-Sep-10 19:33N 22°27' E 113°53'0 0.0
2016-Sep-10 18:33N 22°27' E 113°53'3 2.6
2016-Sep-10 17:33N 22°24' E 113°54'11 9.2
2016-Sep-10 16:19N 22°20' E 114°05'2 1.4
2016-Sep-10 14:33N 22°18' E 114°06'3 0.3
2016-Sep-10 04:31N 22°21' E 114°07'0 0.0
2016-Sep-09 22:28N 22°21' E 114°07'0 0.0
2016-Sep-09 21:30N 22°21' E 114°07'0 0.0
2016-Sep-09 20:33N 22°21' E 114°07'3 2.8
2016-Sep-09 19:33N 22°18' E 114°06'1610.8
2016-Sep-09 18:03N 22°08' E 114°19'5 9.9
2016-Sep-09 17:34N 22°08' E 114°24'30519.0
2016-Sep-09 01:32N 22°31' E 119°53'1717.7
2016-Sep-09 00:33N 22°32' E 120°12'7 6.7
2016-Sep-08 23:33N 22°34' E 120°19'0 0.1
2016-Sep-08 22:33N 22°34' E 120°18'0 0.0
2016-Sep-08 21:33N 22°34' E 120°18'0 0.0
2016-Sep-08 20:33N 22°34' E 120°18'0 0.0
2016-Sep-08 19:33N 22°34' E 120°18'0 0.0
2016-Sep-08 18:34N 22°34' E 120°18'0 0.0
2016-Sep-08 17:33N 22°34' E 120°18'0 0.0
2016-Sep-08 16:33N 22°34' E 120°18'0 0.0
2016-Sep-08 15:34N 22°34' E 120°18'0 0.0
2016-Sep-08 14:33N 22°34' E 120°18'0 0.0
2016-Sep-08 13:33N 22°34' E 120°18'0 0.0
2016-Sep-08 12:33N 22°34' E 120°18'0 0.0
2016-Sep-08 11:33N 22°34' E 120°18'0 0.0
2016-Sep-08 10:33N 22°34' E 120°18'0 0.0
2016-Sep-08 09:33N 22°34' E 120°18'0 0.0
2016-Sep-08 08:33N 22°34' E 120°18'0 0.0
2016-Sep-08 07:33N 22°34' E 120°18'0 0.0
2016-Sep-08 06:33N 22°34' E 120°18'0 0.0
2016-Sep-08 05:33N 22°34' E 120°18'0 0.0
2016-Sep-08 04:33N 22°34' E 120°18'0 0.0
2016-Sep-08 03:33N 22°34' E 120°18'0 0.0
2016-Sep-08 02:33N 22°34' E 120°18'1 1.0
2016-Sep-08 01:31N 22°33' E 120°18'4 3.9
2016-Sep-08 00:34N 22°32' E 120°14'7 6.9
2016-Sep-07 23:33N 22°30' E 120°07'1313.0
2016-Sep-07 22:33N 22°25' E 119°54'  

Dump ship's entire track history